createdAt,value
2018-08-23T00:01:18.996Z,26.80
2018-08-23T00:03:47.426Z,27.77
2018-08-23T00:06:15.960Z,29.05
2018-08-23T00:08:47.126Z,27.83
2018-08-23T00:11:15.764Z,26.27
2018-08-23T00:13:44.724Z,30.43
2018-08-23T00:16:14.084Z,29.42
2018-08-23T00:18:42.234Z,30.53
2018-08-23T00:21:15.953Z,27.90
2018-08-23T00:23:45.797Z,28.90
2018-08-23T00:26:16.790Z,25.77
2018-08-23T00:28:44.949Z,29.27
2018-08-23T00:31:13.305Z,29.33
2018-08-23T00:33:41.462Z,28.07
2018-08-23T00:36:09.700Z,27.33
2018-08-23T00:38:38.512Z,25.87
2018-08-23T00:41:07.333Z,26.67
2018-08-23T00:43:35.656Z,27.37
2018-08-23T00:46:09.865Z,27.53
2018-08-23T00:48:38.678Z,26.70
2018-08-23T00:51:07.389Z,26.48
2018-08-23T00:53:37.333Z,25.27
2018-08-23T00:56:22.253Z,25.97
2018-08-23T00:58:56.921Z,25.30
2018-08-23T01:01:25.657Z,25.77
2018-08-23T01:03:54.222Z,27.07
2018-08-23T01:06:25.093Z,25.10
2018-08-23T01:08:53.845Z,26.65
2018-08-23T01:11:22.178Z,25.77
2018-08-23T01:13:50.661Z,25.00
2018-08-23T01:16:19.776Z,24.15
2018-08-23T01:18:48.628Z,25.23
2018-08-23T01:21:17.074Z,21.55
2018-08-23T01:23:45.780Z,21.30
2018-08-23T01:26:14.599Z,20.12
2018-08-23T01:28:42.929Z,20.13
2018-08-23T01:31:24.736Z,18.90
2018-08-23T01:33:56.988Z,17.20
2018-08-23T01:36:32.115Z,15.97
2018-08-23T01:39:06.934Z,17.47
2018-08-23T01:41:35.281Z,17.37
2018-08-23T01:44:03.818Z,18.10
2018-08-23T01:46:38.226Z,19.83
2018-08-23T01:49:07.369Z,17.50
2018-08-23T01:51:36.238Z,18.03
2018-08-23T01:54:05.996Z,18.70
2018-08-23T01:56:34.515Z,20.63
2018-08-23T01:59:03.081Z,19.43
2018-08-23T02:01:32.151Z,20.57
2018-08-23T02:04:00.310Z,23.33
2018-08-23T02:06:33.739Z,22.63
2018-08-23T02:09:02.927Z,21.97
2018-08-23T02:11:32.325Z,25.70
2018-08-23T02:14:01.277Z,22.77
2018-08-23T02:16:39.338Z,23.50
2018-08-23T02:19:08.088Z,21.03
2018-08-23T02:21:36.407Z,21.83
2018-08-23T02:24:06.177Z,20.00
2018-08-23T02:26:34.589Z,19.87
2018-08-23T02:29:03.077Z,18.57
2018-08-23T02:31:31.777Z,18.67
2018-08-23T02:34:00.601Z,18.43
2018-08-23T02:36:29.461Z,17.93
2018-08-23T02:39:00.417Z,19.27
2018-08-23T02:41:29.584Z,18.43
2018-08-23T02:43:58.072Z,21.87
2018-08-23T02:46:26.458Z,18.87
2018-08-23T02:48:54.801Z,16.53
2018-08-23T02:51:32.284Z,17.07
2018-08-23T02:54:00.441Z,18.63
2018-08-23T02:56:29.301Z,20.17
2018-08-23T02:59:11.866Z,18.07
2018-08-23T03:01:41.636Z,16.97
2018-08-23T03:04:13.165Z,17.13
2018-08-23T03:07:12.724Z,15.50
2018-08-23T03:09:43.171Z,16.93
2018-08-23T03:12:17.052Z,17.02
2018-08-23T03:14:51.792Z,18.50
2018-08-23T03:17:27.223Z,17.43
2018-08-23T03:20:10.570Z,15.57
2018-08-23T03:22:40.057Z,18.50
2018-08-23T03:25:11.005Z,19.07
2018-08-23T03:27:39.582Z,20.13
2018-08-23T03:30:09.256Z,20.63
2018-08-23T03:32:38.328Z,18.90
2018-08-23T03:35:07.239Z,18.33
2018-08-23T03:37:35.942Z,19.43
2018-08-23T03:40:05.737Z,18.62
2018-08-23T03:42:34.409Z,18.60
2018-08-23T03:45:03.094Z,18.87
2018-08-23T03:47:35.946Z,19.37
2018-08-23T03:50:05.367Z,23.83
2018-08-23T03:52:40.896Z,22.97
2018-08-23T03:55:10.984Z,20.75
2018-08-23T03:57:45.001Z,21.83
2018-08-23T04:00:14.912Z,26.33
2018-08-23T04:02:43.069Z,19.70
2018-08-23T04:05:17.672Z,19.82
2018-08-23T04:07:46.480Z,22.00
2018-08-23T04:10:14.637Z,20.87
2018-08-23T04:12:44.223Z,19.23
2018-08-23T04:15:25.152Z,17.37
2018-08-23T04:17:53.933Z,21.13
2018-08-23T04:20:22.721Z,19.42
2018-08-23T04:22:51.335Z,21.30
2018-08-23T04:25:20.276Z,24.70
2018-08-23T04:27:48.797Z,19.37
2018-08-23T04:30:17.325Z,26.00
2018-08-23T04:32:46.608Z,21.83
2018-08-23T04:35:23.365Z,22.13
2018-08-23T04:37:52.317Z,21.63
2018-08-23T04:40:20.478Z,22.67
2018-08-23T04:42:48.992Z,22.97
2018-08-23T04:45:24.277Z,18.60
2018-08-23T04:48:08.430Z,20.97
2018-08-23T04:50:37.538Z,19.80
2018-08-23T04:53:06.697Z,20.90
2018-08-23T04:55:35.185Z,23.47
2018-08-23T04:58:04.284Z,23.03
2018-08-23T05:00:33.375Z,21.97
2018-08-23T05:03:01.725Z,19.40
2018-08-23T05:05:30.434Z,28.57
2018-08-23T05:07:59.110Z,23.57
2018-08-23T05:10:27.592Z,24.53
2018-08-23T05:12:56.758Z,26.82
2018-08-23T05:15:25.437Z,22.90
2018-08-23T05:17:53.908Z,30.47
2018-08-23T05:20:22.349Z,23.90
2018-08-23T05:22:56.117Z,27.73
2018-08-23T05:25:25.646Z,21.13
2018-08-23T05:28:05.821Z,21.53
2018-08-23T05:30:34.900Z,26.67
2018-08-23T05:33:12.913Z,23.33
2018-08-23T05:35:41.428Z,30.97
2018-08-23T05:38:11.026Z,24.05
2018-08-23T05:40:46.183Z,32.70
2018-08-23T05:43:15.377Z,28.27
2018-08-23T05:45:47.369Z,28.33
2018-08-23T05:48:36.521Z,27.13
2018-08-23T05:51:14.669Z,24.67
2018-08-23T05:53:46.056Z,30.77
2018-08-23T05:56:14.709Z,33.00
2018-08-23T05:58:43.617Z,29.73
2018-08-23T06:01:12.082Z,28.42
2018-08-23T06:03:40.764Z,29.13
2018-08-23T06:06:10.138Z,25.47
2018-08-23T06:08:43.394Z,31.73
2018-08-23T06:11:12.493Z,31.23
2018-08-23T06:13:41.164Z,30.80
2018-08-23T06:16:09.882Z,32.87
2018-08-23T06:18:38.155Z,36.77
2018-08-23T06:21:07.297Z,30.60
2018-08-23T06:24:02.838Z,31.30
2018-08-23T06:26:52.741Z,37.23
2018-08-23T06:29:29.267Z,36.80
2018-08-23T06:32:10.260Z,41.17
2018-08-23T06:34:56.557Z,31.30
2018-08-23T06:37:25.414Z,35.57
2018-08-23T06:39:54.105Z,40.73
2018-08-23T06:42:36.595Z,37.73
2018-08-23T06:45:05.685Z,40.63
2018-08-23T06:47:34.566Z,40.23
2018-08-23T06:50:03.624Z,42.03
2018-08-23T06:52:39.319Z,41.70
2018-08-23T06:55:10.229Z,42.03
2018-08-23T06:57:44.659Z,38.83
2018-08-23T07:00:17.820Z,46.13
2018-08-23T07:02:48.636Z,42.87
2018-08-23T07:05:23.729Z,47.88
2018-08-23T07:07:53.083Z,47.13
2018-08-23T07:10:21.614Z,43.27
2018-08-23T07:12:50.415Z,43.47
2018-08-23T07:15:19.299Z,43.80
2018-08-23T07:17:47.939Z,40.70
2018-08-23T07:20:17.180Z,44.67
2018-08-23T07:22:46.214Z,43.37
2018-08-23T07:25:16.021Z,41.33
2018-08-23T07:27:44.572Z,43.80
2018-08-23T07:30:16.659Z,44.90
2018-08-23T07:32:47.137Z,43.10
2018-08-23T07:35:18.913Z,41.53
2018-08-23T07:37:48.662Z,40.23
2018-08-23T07:40:18.939Z,41.20
2018-08-23T07:42:48.854Z,40.53
2018-08-23T07:45:18.022Z,39.75
2018-08-23T07:47:48.777Z,39.87
2018-08-23T07:50:17.463Z,38.65
2018-08-23T07:52:47.967Z,39.87
2018-08-23T07:55:16.622Z,40.30
2018-08-23T07:57:45.944Z,38.63
2018-08-23T08:00:37.566Z,37.20
2018-08-23T08:03:07.110Z,36.47
2018-08-23T08:05:36.597Z,37.07
2018-08-23T08:08:06.058Z,37.47
2018-08-23T08:10:38.054Z,38.47
2018-08-23T08:13:06.618Z,36.47
2018-08-23T08:15:35.172Z,35.00
2018-08-23T08:18:22.984Z,35.30
2018-08-23T08:20:58.497Z,34.50
2018-08-23T08:23:27.018Z,35.07
2018-08-23T08:25:55.779Z,36.53
2018-08-23T08:28:24.238Z,35.80
2018-08-23T08:30:59.190Z,34.10
2018-08-23T08:33:34.250Z,34.53
2018-08-23T08:36:04.034Z,34.67
2018-08-23T08:38:33.026Z,34.20
2018-08-23T08:41:01.222Z,35.10
2018-08-23T08:43:29.779Z,35.43
2018-08-23T08:45:59.338Z,34.17
2018-08-23T08:48:31.566Z,34.75
2018-08-23T08:51:18.073Z,34.53
2018-08-23T08:53:47.015Z,36.63
2018-08-23T08:56:15.510Z,35.75
2018-08-23T08:58:44.122Z,36.67
2018-08-23T09:01:12.798Z,34.58
2018-08-23T09:03:41.920Z,37.97
2018-08-23T09:06:11.539Z,37.50
2018-08-23T09:08:40.234Z,36.30
2018-08-23T09:11:08.761Z,39.93
2018-08-23T09:13:42.978Z,37.70
2018-08-23T09:16:11.930Z,37.85
2018-08-23T09:18:42.328Z,39.47
2018-08-23T09:21:11.374Z,36.53
2018-08-23T09:23:39.707Z,38.67
2018-08-23T09:26:08.562Z,37.53
2018-08-23T09:28:37.099Z,36.87
2018-08-23T09:31:05.942Z,37.00
2018-08-23T09:33:34.856Z,39.93
2018-08-23T09:36:03.637Z,39.03
2018-08-23T09:38:32.726Z,37.80
2018-08-23T09:41:01.125Z,36.77
2018-08-23T09:43:29.447Z,41.10
2018-08-23T09:45:58.205Z,40.40
2018-08-23T09:48:26.958Z,40.23
2018-08-23T09:50:55.327Z,41.43
2018-08-23T09:53:25.490Z,38.63
2018-08-23T09:55:54.932Z,37.67
2018-08-23T09:58:29.106Z,39.10
2018-08-23T10:01:03.218Z,38.80
2018-08-23T10:03:36.665Z,41.47
2018-08-23T10:06:11.142Z,39.53
2018-08-23T10:08:45.210Z,39.23
2018-08-23T10:11:18.967Z,38.33
2018-08-23T10:13:52.670Z,39.30
2018-08-23T10:16:26.891Z,37.70
2018-08-23T10:18:59.524Z,34.67
2018-08-23T10:21:33.854Z,34.70
2018-08-23T10:24:13.046Z,32.90
2018-08-23T10:26:41.991Z,33.27
2018-08-23T10:29:10.306Z,32.50
2018-08-23T10:31:39.026Z,30.40
2018-08-23T10:34:07.494Z,28.50
2018-08-23T10:36:36.003Z,26.23
2018-08-23T10:39:08.420Z,28.73
2018-08-23T10:41:36.802Z,29.10
2018-08-23T10:44:05.845Z,32.57
2018-08-23T10:46:39.584Z,33.30
2018-08-23T10:49:08.456Z,32.77
2018-08-23T10:51:36.974Z,32.23
2018-08-23T10:54:06.400Z,33.23
2018-08-23T10:56:34.596Z,34.73
2018-08-23T10:59:03.685Z,36.00
2018-08-23T11:01:32.063Z,35.77
2018-08-23T11:04:06.197Z,36.53
2018-08-23T11:06:36.077Z,36.30
2018-08-23T11:09:12.512Z,34.00
2018-08-23T11:11:41.095Z,37.87
2018-08-23T11:14:14.823Z,36.17
2018-08-23T11:16:48.706Z,38.05
2018-08-23T11:19:22.662Z,38.38
2018-08-23T11:21:57.995Z,34.60
2018-08-23T11:24:26.179Z,36.23
2018-08-23T11:26:54.998Z,38.38
2018-08-23T11:29:23.793Z,38.63
2018-08-23T11:31:53.187Z,35.77
2018-08-23T11:34:21.598Z,35.08
2018-08-23T11:36:49.783Z,35.10
2018-08-23T11:39:18.447Z,35.77
2018-08-23T11:41:46.953Z,34.00
2018-08-23T11:44:15.964Z,36.42
2018-08-23T11:46:44.770Z,36.57
2018-08-23T11:49:13.589Z,36.13
2018-08-23T11:51:42.233Z,33.10
2018-08-23T11:54:10.531Z,35.03
2018-08-23T11:56:39.250Z,34.70
2018-08-23T11:59:07.491Z,33.93
2018-08-23T12:01:36.514Z,31.23
2018-08-23T12:04:06.186Z,31.57
2018-08-23T12:06:34.928Z,30.10
2018-08-23T12:09:04.671Z,28.43
2018-08-23T12:11:33.866Z,26.60
2018-08-23T12:14:02.672Z,27.77
2018-08-23T12:16:31.333Z,29.03
2018-08-23T12:18:59.559Z,28.20
2018-08-23T12:21:28.107Z,28.70
2018-08-23T12:23:56.367Z,28.60
2018-08-23T12:26:24.553Z,27.47
2018-08-23T12:28:58.204Z,26.10
2018-08-23T12:31:27.124Z,27.47
2018-08-23T12:33:55.468Z,30.33
2018-08-23T12:36:29.333Z,28.20
2018-08-23T12:39:03.038Z,27.63
2018-08-23T12:41:36.677Z,26.23
2018-08-23T12:44:05.907Z,25.50
2018-08-23T12:46:34.332Z,23.53
2018-08-23T12:49:03.033Z,24.13
2018-08-23T12:51:31.974Z,26.63
2018-08-23T12:54:00.191Z,25.80
2018-08-23T12:56:29.134Z,23.63
2018-08-23T12:58:57.609Z,24.47
2018-08-23T13:01:25.871Z,22.53
2018-08-23T13:03:54.751Z,24.57
2018-08-23T13:06:23.776Z,23.90
2018-08-23T13:08:52.497Z,23.87
2018-08-23T13:11:21.369Z,21.73
2018-08-23T13:13:49.567Z,22.60
2018-08-23T13:16:18.412Z,23.20
2018-08-23T13:18:46.602Z,23.23
2018-08-23T13:21:14.801Z,21.73
2018-08-23T13:23:46.187Z,23.57
2018-08-23T13:26:15.106Z,23.43
2018-08-23T13:28:43.646Z,24.47
2018-08-23T13:31:12.111Z,23.45
2018-08-23T13:33:40.646Z,21.60
2018-08-23T13:36:09.889Z,21.07
2018-08-23T13:38:38.445Z,19.03
2018-08-23T13:41:07.063Z,21.57
2018-08-23T13:43:35.763Z,22.17
2018-08-23T13:46:05.632Z,22.34
2018-08-23T13:48:34.531Z,23.37
2018-08-23T13:51:03.093Z,23.83
2018-08-23T13:53:31.615Z,19.30
2018-08-23T13:56:00.118Z,20.13
2018-08-23T13:58:29.036Z,19.87
2018-08-23T14:00:57.539Z,19.93
2018-08-23T14:03:25.722Z,18.77
2018-08-23T14:05:54.555Z,18.73
2018-08-23T14:08:23.559Z,19.40
2018-08-23T14:10:51.742Z,20.50
2018-08-23T14:13:20.837Z,21.42
2018-08-23T14:15:54.913Z,19.17
2018-08-23T14:18:23.731Z,19.70
2018-08-23T14:20:53.069Z,17.90
2018-08-23T14:23:21.632Z,19.90
2018-08-23T14:25:50.536Z,17.67
2018-08-23T14:28:18.705Z,20.10
2018-08-23T14:30:47.202Z,17.97
2018-08-23T14:33:15.742Z,19.07
2018-08-23T14:35:44.226Z,16.67
2018-08-23T14:38:12.889Z,19.33
2018-08-23T14:40:41.763Z,18.97
2018-08-23T14:43:10.501Z,17.60
2018-08-23T14:45:38.670Z,19.73
2018-08-23T14:48:12.171Z,19.30
2018-08-23T14:50:40.768Z,16.50
2018-08-23T14:53:09.603Z,17.70
2018-08-23T14:55:43.842Z,19.90
2018-08-23T14:58:12.133Z,21.53
2018-08-23T15:00:41.208Z,18.53
2018-08-23T15:03:09.796Z,18.70
2018-08-23T15:05:37.986Z,19.27
2018-08-23T15:08:06.833Z,18.23
2018-08-23T15:10:35.757Z,17.67
2018-08-23T15:13:03.940Z,18.50
2018-08-23T15:15:37.913Z,19.83
2018-08-23T15:18:06.894Z,19.93
2018-08-23T15:20:35.209Z,19.90
2018-08-23T15:23:03.930Z,18.87
2018-08-23T15:25:32.127Z,18.10
2018-08-23T15:28:00.442Z,16.93
2018-08-23T15:30:29.022Z,17.10
2018-08-23T15:32:57.465Z,18.07
2018-08-23T15:35:25.810Z,18.13
2018-08-23T15:37:54.909Z,18.40
2018-08-23T15:40:23.769Z,18.20
2018-08-23T15:42:52.787Z,16.90
2018-08-23T15:45:21.751Z,17.23
2018-08-23T15:47:50.411Z,16.67
2018-08-23T15:50:22.091Z,18.82
2018-08-23T15:52:50.622Z,18.17
2018-08-23T15:55:20.914Z,18.02
2018-08-23T15:57:49.365Z,20.00
2018-08-23T16:00:17.966Z,18.07
2018-08-23T16:02:46.651Z,18.73
2018-08-23T16:05:15.117Z,17.73
2018-08-23T16:07:43.646Z,18.70
2018-08-23T16:10:13.524Z,18.37
2018-08-23T16:12:42.154Z,21.47
2018-08-23T16:15:16.229Z,20.67
2018-08-23T16:17:49.779Z,19.80
2018-08-23T16:20:32.115Z,21.60
2018-08-23T16:23:00.398Z,19.80
2018-08-23T16:25:28.938Z,22.47
2018-08-23T16:27:57.401Z,22.83
2018-08-23T16:30:26.372Z,23.13
2018-08-23T16:32:54.593Z,21.40
2018-08-23T16:35:23.410Z,22.67
2018-08-23T16:37:52.741Z,21.37
2018-08-23T16:40:27.250Z,21.30
2018-08-23T16:42:55.806Z,22.90
2018-08-23T16:45:24.048Z,21.80
2018-08-23T16:47:52.600Z,19.47
2018-08-23T16:50:21.402Z,21.30
2018-08-23T16:52:49.661Z,21.63
2018-08-23T16:55:18.294Z,22.87
2018-08-23T16:57:46.843Z,21.27
2018-08-23T17:00:16.014Z,22.98
2018-08-23T17:02:44.203Z,23.03
2018-08-23T17:05:12.637Z,20.20
2018-08-23T17:07:41.221Z,22.87
2018-08-23T17:10:10.681Z,28.30
2018-08-23T17:12:39.414Z,26.00
2018-08-23T17:15:12.250Z,25.27
2018-08-23T17:17:44.422Z,27.37
2018-08-23T17:20:13.067Z,23.85
2018-08-23T17:22:41.258Z,27.30
2018-08-23T17:25:10.131Z,25.33
2018-08-23T17:27:38.577Z,26.27
2018-08-23T17:30:06.764Z,27.17
2018-08-23T17:32:34.939Z,24.83
2018-08-23T17:35:04.047Z,25.00
2018-08-23T17:37:32.238Z,27.83
2018-08-23T17:40:01.243Z,26.40
2018-08-23T17:42:34.966Z,25.87
2018-08-23T17:45:03.162Z,27.47
2018-08-23T17:47:31.715Z,25.67
2018-08-23T17:50:00.433Z,25.80
2018-08-23T17:52:28.654Z,24.17
2018-08-23T17:54:57.041Z,25.80
2018-08-23T17:57:25.447Z,24.93
2018-08-23T17:59:54.674Z,23.00
2018-08-23T18:02:22.915Z,24.43
2018-08-23T18:04:51.871Z,23.17
2018-08-23T18:07:20.746Z,23.73
2018-08-23T18:09:49.611Z,23.83
2018-08-23T18:12:18.158Z,23.40
2018-08-23T18:14:46.362Z,19.00
2018-08-23T18:17:14.535Z,20.07
2018-08-23T18:19:42.905Z,17.37
2018-08-23T18:22:11.386Z,19.25
2018-08-23T18:24:40.746Z,17.07
2018-08-23T18:27:10.012Z,18.93
2018-08-23T18:29:39.062Z,18.77
2018-08-23T18:32:08.064Z,18.67
2018-08-23T18:34:36.401Z,18.80
2018-08-23T18:37:06.236Z,17.77
2018-08-23T18:39:34.419Z,18.67
2018-08-23T18:42:02.938Z,16.43
2018-08-23T18:44:31.210Z,15.63
2018-08-23T18:46:59.930Z,16.83
2018-08-23T18:49:28.487Z,18.17
2018-08-23T18:51:56.670Z,19.43
2018-08-23T18:54:25.082Z,16.67
2018-08-23T18:56:53.416Z,14.37
2018-08-23T18:59:21.607Z,15.50
2018-08-23T19:01:50.117Z,16.23
2018-08-23T19:04:19.281Z,16.23
2018-08-23T19:06:47.470Z,17.70
2018-08-23T19:09:15.843Z,15.70
2018-08-23T19:11:44.026Z,15.13
2018-08-23T19:14:12.871Z,14.93
2018-08-23T19:16:46.898Z,16.87
2018-08-23T19:19:15.763Z,16.73
2018-08-23T19:21:44.307Z,18.10
2018-08-23T19:24:12.962Z,16.12
2018-08-23T19:26:41.498Z,15.60
2018-08-23T19:29:10.670Z,17.67
2018-08-23T19:31:39.295Z,17.07
2018-08-23T19:34:08.290Z,18.13
2018-08-23T19:36:37.331Z,16.43
2018-08-23T19:39:09.294Z,18.40
2018-08-23T19:41:38.037Z,18.30
2018-08-23T19:44:07.126Z,17.17
2018-08-23T19:46:40.985Z,15.50
2018-08-23T19:49:14.678Z,17.80
2018-08-23T19:51:43.754Z,16.60
2018-08-23T19:54:12.907Z,17.30
2018-08-23T19:56:41.418Z,17.00
2018-08-23T19:59:10.585Z,16.85
2018-08-23T20:01:39.132Z,18.27
2018-08-23T20:04:07.968Z,15.47
2018-08-23T20:06:37.045Z,17.23
2018-08-23T20:09:07.991Z,15.83
2018-08-23T20:11:36.812Z,14.90
2018-08-23T20:14:05.779Z,16.63
2018-08-23T20:16:34.126Z,17.53
2018-08-23T20:19:02.335Z,18.30
2018-08-23T20:21:30.516Z,17.10
2018-08-23T20:23:59.042Z,16.80
2018-08-23T20:26:27.426Z,16.50
2018-08-23T20:28:55.971Z,16.73
2018-08-23T20:31:24.885Z,17.17
2018-08-23T20:33:53.127Z,15.13
2018-08-23T20:36:21.603Z,15.50
2018-08-23T20:38:50.154Z,15.90
2018-08-23T20:41:19.062Z,15.05
2018-08-23T20:43:48.044Z,13.17
2018-08-23T20:46:17.003Z,13.85
2018-08-23T20:48:45.192Z,13.60
2018-08-23T20:51:13.580Z,13.70
2018-08-23T20:53:41.765Z,12.60
2018-08-23T20:56:10.624Z,12.45
2018-08-23T20:58:39.198Z,13.20
2018-08-23T21:01:07.912Z,12.63
2018-08-23T21:03:36.699Z,12.20
2018-08-23T21:06:05.680Z,11.15
2018-08-23T21:08:34.197Z,11.60
2018-08-23T21:11:02.676Z,11.30
2018-08-23T21:13:31.378Z,12.37
2018-08-23T21:15:59.631Z,11.57
2018-08-23T21:18:28.518Z,11.93
2018-08-23T21:20:57.050Z,11.50
2018-08-23T21:23:25.759Z,10.10
2018-08-23T21:25:53.969Z,11.60
2018-08-23T21:28:22.966Z,11.05
2018-08-23T21:30:51.741Z,11.67
2018-08-23T21:33:20.529Z,12.23
2018-08-23T21:35:49.127Z,10.97
2018-08-23T21:38:17.349Z,11.53
2018-08-23T21:40:45.521Z,12.10
2018-08-23T21:43:13.977Z,12.40
2018-08-23T21:45:42.704Z,10.77
2018-08-23T21:48:11.377Z,11.97
2018-08-23T21:50:39.577Z,11.00
2018-08-23T21:53:08.172Z,10.53
2018-08-23T21:55:38.809Z,10.00
2018-08-23T21:58:09.235Z,9.20
2018-08-23T22:00:42.740Z,8.80
2018-08-23T22:03:12.370Z,8.35
2018-08-23T22:05:41.192Z,7.60
2018-08-23T22:08:09.807Z,6.73
2018-08-23T22:10:38.815Z,8.07
2018-08-23T22:13:07.683Z,7.10
2018-08-23T22:15:40.722Z,6.97
2018-08-23T22:18:08.954Z,6.23
2018-08-23T22:20:37.315Z,6.80
2018-08-23T22:23:06.230Z,7.30
2018-08-23T22:25:34.403Z,6.80
2018-08-23T22:28:02.644Z,5.90
2018-08-23T22:30:31.626Z,4.50
2018-08-23T22:33:00.047Z,4.00
2018-08-23T22:35:28.938Z,3.50
2018-08-23T22:37:57.901Z,2.53
2018-08-23T22:40:26.739Z,1.93
2018-08-23T22:42:55.085Z,1.97
2018-08-23T22:45:23.740Z,2.37
2018-08-23T22:47:52.639Z,2.20
2018-08-23T22:50:20.968Z,2.40
2018-08-23T22:52:49.358Z,1.83
2018-08-23T22:55:17.881Z,2.50
2018-08-23T22:57:46.478Z,2.10
2018-08-23T23:00:15.310Z,1.80
2018-08-23T23:02:43.474Z,2.47
2018-08-23T23:05:12.355Z,2.07
2018-08-23T23:07:41.274Z,2.30
2018-08-23T23:10:10.111Z,2.37
2018-08-23T23:12:38.948Z,1.90
2018-08-23T23:15:11.599Z,2.37
2018-08-23T23:17:39.771Z,1.60
2018-08-23T23:20:08.983Z,2.13
2018-08-23T23:22:38.234Z,2.00
2018-08-23T23:25:07.225Z,1.67
2018-08-23T23:27:35.617Z,2.03
2018-08-23T23:30:05.902Z,4.00
2018-08-23T23:32:34.181Z,4.10
2018-08-23T23:35:02.748Z,4.70
2018-08-23T23:37:31.082Z,5.43
2018-08-23T23:39:59.266Z,5.10
2018-08-23T23:42:27.429Z,5.07
2018-08-23T23:44:55.775Z,5.57
2018-08-23T23:47:23.941Z,5.00
2018-08-23T23:49:52.230Z,5.50
2018-08-23T23:52:21.063Z,5.20
2018-08-23T23:54:49.435Z,6.10
2018-08-23T23:57:18.115Z,6.43
2018-08-23T23:59:46.633Z,5.53
